Portada
METAR-TAF:

METAR-TAF

Aeroports :

Davao, Filipines

latitud: 07-07N, longitud: 125-39E, altitud: 17 m

Observació

L'informe es va fer fa 1 hora i 4 minuts, a les 21:00 UTC
Vent calma
Temperatura 24°C
Humitat 89%
Pressió 1011 hPa
Visibilitat 10 km o més
Escasses núvols a una alçada de 1600 ft
Núvols disperses a una alçada de 29000 ft

METAR: RPMD 152100Z 00000KT 9999 FEW016 SCT290 24/22 Q1011 RMK A2985

Hora: 06:04 (22:04 UTC)

Pronòstic

L'informe es va fer fa 5 hores i 4 minuts, a les 17:00 UTC
Pronòstic vàlid del 15 a les 18 UTC al 16 a les 18 UTC
Vent 8 kt del Sud
Visibilitat 10 km o més
Escasses núvols a una alçada de 1600 ft
Núvols disperses a una alçada de 29000 ft
Temporalment
l' 16 a les 03 UTC al 16 a les 09 UTC
Vent 10 kt del Sud/Sud-Oest
Núvols disperses a una alçada de 1600 ft
Cel ennuvolat a una alçada de 29000 ft

TAF: RPMD 151700Z 1518/1618 18008KT 9999 FEW016 SCT290 TEMPO 1603/1609 20010KT SCT016 BKN290

Observacions i pronòstics meteorològics de més de 4000 aeroports (METAR i TAF).

Les estacions disponibles són els punts grocs i vermells al mapa.

Posi el ratolí al punt desitjat per veure el nom de l'estació.

Feu clic per veure les observacions i els pronòstics meteorològics.

Per canviar el mapa: feu clic els botons verds amb una creu de color negre per apropar; al botó verd amb un guió per allunyar la imatge; o en les fletxes verdes per a mapes adjacents.


METAR-TAF: